Time;durP1;ratioP1;P1;durP2;ratioP2;P2;SDS_P1;SDS_P2;PMS_P1;PMS_P2;Temp;Humidity;BMP_temperature;BMP_pressure;BME280_temperature;BME280_humidity;BME280_pressure;Samples;Min_cycle;Max_cycle;Signal;HPM_P1;HPM_P2
2021/07/20 00:00:14;;;;;;;11.10;8.32;;;;;;;;;;3520194;40;105242;-59
2021/07/20 00:02:47;;;;;;;11.05;7.70;;;;;;;;;;3511367;40;106917;-58
2021/07/20 00:05:20;;;;;;;9.55;7.53;;;;;;;;;;3519268;40;107791;-65
2021/07/20 00:07:51;;;;;;;10.40;7.60;;;;;;;;;;3519933;39;105301;-62
2021/07/20 00:10:33;;;;;;;10.15;7.90;;;;;;;;;;3519928;40;105350;-61
2021/07/20 00:13:01;;;;;;;10.55;7.82;;;;;;;;;;3519577;39;106949;-61
2021/07/20 00:15:28;;;;;;;11.85;7.55;;;;;;;;;;3519296;40;107484;-62
2021/07/20 00:17:59;;;;;;;10.27;7.47;;;;;;;;;;3519528;40;105399;-64
2021/07/20 00:20:27;;;;;;;;;;;;;;;;;;3520508;39;105679;-61
2021/07/20 00:22:54;;;;;;;9.98;7.78;;;;;;;;;;3519323;39;136315;-63
2021/07/20 00:25:21;;;;;;;10.95;7.10;;;;;;;;;;3519861;40;107483;-61
2021/07/20 00:27:48;;;;;;;9.88;7.30;;;;;;;;;;3519894;39;105438;-63
2021/07/20 00:30:16;;;;;;;10.57;7.40;;;;;;;;;;3520089;39;105226;-64
2021/07/20 00:32:43;;;;;;;10.55;7.50;;;;;;;;;;3519312;40;107565;-62
2021/07/20 00:35:15;;;;;;;10.73;8.07;;;;;;;;;;3520177;40;108015;-61
2021/07/20 00:37:42;;;;;;;10.98;7.85;;;;;;;;;;3519690;39;105681;-60
2021/07/20 00:40:14;;;;;;;9.98;7.40;;;;;;;;;;3519896;39;105496;-61
2021/07/20 00:42:41;;;;;;;10.80;7.65;;;;;;;;;;3519427;39;107615;-62
2021/07/20 00:45:11;;;;;;;10.63;7.40;;;;;;;;;;3519365;40;107507;-61
2021/07/20 00:47:39;;;;;;;12.25;7.72;;;;;;;;;;3519992;40;105517;-61
2021/07/20 00:50:08;;;;;;;10.15;7.95;;;;;;;;;;3520094;40;105481;-63
2021/07/20 00:52:36;;;;;;;8.73;7.10;;;;;;;;;;3519457;40;107609;-63
2021/07/20 00:55:04;;;;;;;10.57;7.35;;;;;;;;;;3519802;39;108145;-61
2021/07/20 00:57:31;;;;;;;9.27;7.03;;;;;;;;;;3519952;40;105359;-63
2021/07/20 00:59:59;;;;;;;11.70;7.38;;;;;;;;;;3519544;39;106393;-62
2021/07/20 01:02:27;;;;;;;9.70;7.18;;;;;;;;;;3519397;40;106921;-59
2021/07/20 01:04:54;;;;;;;11.02;7.80;;;;;;;;;;3519597;40;108373;-61
2021/07/20 01:07:21;;;;;;;11.18;6.60;;;;;;;;;;3519415;40;105462;-61
2021/07/20 01:09:49;;;;;;;10.73;7.38;;;;;;;;;;3519811;40;105297;-59
2021/07/20 01:12:17;;;;;;;10.20;6.85;;;;;;;;;;3519479;40;107504;-62
2021/07/20 01:14:44;;;;;;;10.32;7.72;;;;;;;;;;3519678;39;107500;-63
2021/07/20 01:17:12;;;;;;;9.43;7.18;;;;;;;;;;3519390;39;105423;-61
2021/07/20 01:19:49;;;;;;;9.13;6.47;;;;;;;;;;3519538;39;105226;-61
2021/07/20 01:22:22;;;;;;;10.23;7.30;;;;;;;;;;3519114;40;106932;-59
2021/07/20 01:24:49;;;;;;;9.40;7.30;;;;;;;;;;3519656;40;107473;-59
2021/07/20 01:27:19;;;;;;;11.40;6.88;;;;;;;;;;3519141;40;105777;-62
2021/07/20 01:29:47;;;;;;;10.10;7.03;;;;;;;;;;3519802;39;105317;-59
2021/07/20 01:32:15;;;;;;;9.57;7.20;;;;;;;;;;3519201;40;106869;-66
2021/07/20 01:34:44;;;;;;;10.07;7.50;;;;;;;;;;3519448;40;107438;-64
2021/07/20 01:37:13;;;;;;;10.35;6.70;;;;;;;;;;3519794;40;105379;-60
2021/07/20 01:39:42;;;;;;;9.77;6.57;;;;;;;;;;3519867;39;105389;-64
2021/07/20 01:42:11;;;;;;;12.15;7.22;;;;;;;;;;3519539;40;106774;-63
2021/07/20 01:44:38;;;;;;;9.63;6.90;;;;;;;;;;3519764;40;107739;-62
2021/07/20 01:47:05;;;;;;;9.40;6.75;;;;;;;;;;3519322;40;105645;-61
2021/07/20 01:49:34;;;;;;;10.35;7.20;;;;;;;;;;3518491;40;105435;-63
2021/07/20 01:52:01;;;;;;;10.20;6.60;;;;;;;;;;3519352;39;106938;-61
2021/07/20 01:54:28;;;;;;;8.40;6.50;;;;;;;;;;3518781;39;107498;-58
2021/07/20 01:56:55;;;;;;;9.52;6.25;;;;;;;;;;3519182;40;105404;-65
2021/07/20 01:59:22;;;;;;;9.63;6.80;;;;;;;;;;3519304;40;105410;-58
2021/07/20 02:02:07;;;;;;;8.50;6.82;;;;;;;;;;3519261;40;106897;-60
2021/07/20 02:09:55;;;;;;;9.73;6.80;;;;;;;;;;3519356;40;105422;-64
2021/07/20 02:12:32;;;;;;;9.82;6.53;;;;;;;;;;3519372;40;106829;-66
2021/07/20 02:15:02;;;;;;;8.85;6.28;;;;;;;;;;3519195;40;107432;-58
2021/07/20 02:17:30;;;;;;;9.75;6.70;;;;;;;;;;3519337;40;105625;-60
2021/07/20 02:20:15;;;;;;;9.25;6.95;;;;;;;;;;3518979;40;106343;-60
2021/07/20 02:22:42;;;;;;;9.00;6.00;;;;;;;;;;3519182;40;106923;-63
2021/07/20 02:25:11;;;;;;;8.07;6.47;;;;;;;;;;3519009;40;108073;-62
2021/07/20 02:27:39;;;;;;;10.07;6.28;;;;;;;;;;3519162;39;105431;-63
2021/07/20 02:30:11;;;;;;;8.15;5.75;;;;;;;;;;3520128;40;105506;-63
2021/07/20 02:32:38;;;;;;;7.30;5.45;;;;;;;;;;3520106;40;106886;-60
2021/07/20 02:35:06;;;;;;;8.63;6.03;;;;;;;;;;3520112;39;108075;-65
2021/07/20 02:37:38;;;;;;;9.25;6.10;;;;;;;;;;3520607;40;105193;-60
2021/07/20 02:40:06;;;;;;;6.72;5.82;;;;;;;;;;3520226;39;105530;-64
2021/07/20 02:42:35;;;;;;;8.75;6.15;;;;;;;;;;3520254;40;106856;-59
2021/07/20 02:45:08;;;;;;;8.80;5.85;;;;;;;;;;3519951;40;107585;-59
2021/07/20 02:47:35;;;;;;;7.80;6.10;;;;;;;;;;3520155;40;105229;-63
2021/07/20 02:50:10;;;;;;;10.23;6.10;;;;;;;;;;3520547;39;105373;-57
2021/07/20 02:52:40;;;;;;;8.85;5.90;;;;;;;;;;3520077;40;106883;-58
2021/07/20 02:55:08;;;;;;;8.43;5.68;;;;;;;;;;3520673;39;107639;-59
2021/07/20 02:57:36;;;;;;;9.30;5.90;;;;;;;;;;3520083;40;105416;-64
2021/07/20 03:00:06;;;;;;;10.05;5.93;;;;;;;;;;3519533;40;105731;-61
2021/07/20 03:02:38;;;;;;;7.80;5.32;;;;;;;;;;3520192;40;106799;-59
2021/07/20 03:05:06;;;;;;;6.75;5.38;;;;;;;;;;3519623;40;107627;-62
2021/07/20 03:07:34;;;;;;;8.18;5.57;;;;;;;;;;3519615;40;105467;-61
2021/07/20 03:10:02;;;;;;;7.63;5.82;;;;;;;;;;3520416;39;105235;-58
2021/07/20 03:12:31;;;;;;;9.13;5.95;;;;;;;;;;3520043;40;107009;-61
2021/07/20 03:14:59;;;;;;;8.85;5.70;;;;;;;;;;3519627;40;107545;-63
2021/07/20 03:17:28;;;;;;;8.27;5.78;;;;;;;;;;3520319;40;105536;-59
2021/07/20 03:19:58;;;;;;;;;;;;;;;;;;3521160;39;105546;-60
2021/07/20 03:22:28;;;;;;;7.47;6.03;;;;;;;;;;3518889;40;136043;-62
2021/07/20 03:24:58;;;;;;;7.55;5.57;;;;;;;;;;3520119;40;107379;-63
2021/07/20 03:27:31;;;;;;;9.15;5.85;;;;;;;;;;3520153;39;105787;-62
2021/07/20 03:30:00;;;;;;;9.02;6.03;;;;;;;;;;3519693;40;105611;-62
2021/07/20 03:32:28;;;;;;;7.93;5.68;;;;;;;;;;3519915;39;106789;-62
2021/07/20 03:34:55;;;;;;;8.70;6.03;;;;;;;;;;3519353;39;107251;-57
2021/07/20 03:37:23;;;;;;;8.15;5.70;;;;;;;;;;3520124;40;105613;-61
2021/07/20 03:39:55;;;;;;;9.77;6.20;;;;;;;;;;3519619;39;105521;-61
2021/07/20 03:42:24;;;;;;;8.43;6.28;;;;;;;;;;3520178;40;106799;-63
2021/07/20 03:44:52;;;;;;;8.38;5.68;;;;;;;;;;3519154;40;107478;-63
2021/07/20 03:47:19;;;;;;;7.43;5.80;;;;;;;;;;3519957;40;105512;-62
2021/07/20 03:49:47;;;;;;;8.77;5.93;;;;;;;;;;3519891;39;105453;-63
2021/07/20 03:52:14;;;;;;;7.82;6.07;;;;;;;;;;3520073;40;106767;-61
2021/07/20 03:54:42;;;;;;;7.40;5.15;;;;;;;;;;3519666;39;107566;-60
2021/07/20 03:57:13;;;;;;;8.32;5.68;;;;;;;;;;3520032;40;105180;-62
2021/07/20 03:59:43;;;;;;;8.20;5.93;;;;;;;;;;3514572;40;105376;-61
2021/07/20 04:02:11;;;;;;;8.35;5.65;;;;;;;;;;3519898;40;106953;-64
2021/07/20 04:04:41;;;;;;;7.35;5.80;;;;;;;;;;3519386;39;107344;-62
2021/07/20 04:07:19;;;;;;;7.63;5.80;;;;;;;;;;3519725;39;105468;-57
2021/07/20 04:09:50;;;;;;;7.93;5.60;;;;;;;;;;3519139;39;106634;-65
2021/07/20 04:12:18;;;;;;;7.47;5.68;;;;;;;;;;3510103;40;106850;-62
2021/07/20 04:14:46;;;;;;;8.95;5.97;;;;;;;;;;3510092;40;107561;-60
2021/07/20 04:17:14;;;;;;;8.88;5.95;;;;;;;;;;3510166;40;105338;-58
2021/07/20 04:19:43;;;;;;;7.32;5.30;;;;;;;;;;3509985;40;105148;-61
2021/07/20 04:22:12;;;;;;;9.15;5.90;;;;;;;;;;3510103;40;106929;-64
2021/07/20 04:24:40;;;;;;;8.68;5.75;;;;;;;;;;3510184;40;107618;-62
2021/07/20 04:27:07;;;;;;;8.30;5.40;;;;;;;;;;3510199;40;105169;-60
2021/07/20 04:29:35;;;;;;;7.82;5.78;;;;;;;;;;3510379;40;105583;-65
2021/07/20 04:32:06;;;;;;;7.70;5.28;;;;;;;;;;3516700;40;106972;-60
2021/07/20 04:34:34;;;;;;;8.80;5.57;;;;;;;;;;3519849;40;108077;-64
2021/07/20 04:37:05;;;;;;;9.15;5.55;;;;;;;;;;3520307;40;105608;-63
2021/07/20 04:39:36;;;;;;;9.85;5.97;;;;;;;;;;3519028;40;105565;-59
2021/07/20 04:42:04;;;;;;;6.18;4.97;;;;;;;;;;3520365;40;106797;-60
2021/07/20 04:44:31;;;;;;;10.18;5.70;;;;;;;;;;3520127;40;107479;-65
2021/07/20 04:46:59;;;;;;;9.80;6.03;;;;;;;;;;3520482;40;105148;-63
2021/07/20 04:49:26;;;;;;;8.32;5.57;;;;;;;;;;3519837;40;105623;-62
2021/07/20 04:51:53;;;;;;;8.23;5.53;;;;;;;;;;3518557;40;106809;-61
2021/07/20 04:54:21;;;;;;;7.68;5.47;;;;;;;;;;3519340;40;107614;-62
2021/07/20 04:56:48;;;;;;;7.65;5.32;;;;;;;;;;3518504;40;105150;-64
2021/07/20 04:59:16;;;;;;;10.85;5.60;;;;;;;;;;3519495;40;105184;-64
2021/07/20 05:01:45;;;;;;;7.82;5.80;;;;;;;;;;3526934;39;107172;-60
2021/07/20 05:04:13;;;;;;;9.50;5.53;;;;;;;;;;3519607;39;106744;-62
2021/07/20 05:06:40;;;;;;;8.43;5.45;;;;;;;;;;3519772;39;105167;-65
2021/07/20 05:09:09;;;;;;;8.82;5.63;;;;;;;;;;3520278;39;105274;-63
2021/07/20 05:11:37;;;;;;;7.35;5.32;;;;;;;;;;3519761;39;106857;-57
2021/07/20 05:14:04;;;;;;;9.48;5.85;;;;;;;;;;3519768;40;107584;-60
2021/07/20 05:16:34;;;;;;;9.00;5.50;;;;;;;;;;3520280;39;105338;-63
2021/07/20 05:19:02;;;;;;;7.23;5.33;;;;;;;;;;3519913;39;105557;-59
2021/07/20 05:21:30;;;;;;;9.88;5.95;;;;;;;;;;3520250;40;106782;-59
2021/07/20 05:23:58;;;;;;;11.40;5.65;;;;;;;;;;3519734;39;107482;-61
2021/07/20 05:26:25;;;;;;;7.43;5.78;;;;;;;;;;3519850;40;105325;-60
2021/07/20 05:28:53;;;;;;;9.32;5.97;;;;;;;;;;3520298;39;105154;-62
2021/07/20 05:31:21;;;;;;;8.07;5.53;;;;;;;;;;3519469;40;106804;-64
2021/07/20 05:33:53;;;;;;;10.35;6.13;;;;;;;;;;3519736;40;107454;-61
2021/07/20 05:36:20;;;;;;;8.60;5.68;;;;;;;;;;3519736;40;105302;-62
2021/07/20 05:38:47;;;;;;;7.57;4.95;;;;;;;;;;3519894;39;105293;-61
2021/07/20 05:41:16;;;;;;;8.40;5.63;;;;;;;;;;3519148;40;106885;-61
2021/07/20 05:43:44;;;;;;;7.25;5.47;;;;;;;;;;3519700;40;107495;-58
2021/07/20 05:46:11;;;;;;;6.93;5.03;;;;;;;;;;3519852;39;105184;-63
2021/07/20 05:48:43;;;;;;;7.88;5.43;;;;;;;;;;3520023;39;105189;-61
2021/07/20 05:51:13;;;;;;;6.75;5.35;;;;;;;;;;3519396;40;106748;-61
2021/07/20 05:53:40;;;;;;;7.50;5.37;;;;;;;;;;3519971;40;107468;-62
2021/07/20 05:56:08;;;;;;;8.13;5.50;;;;;;;;;;3519603;39;105157;-61
2021/07/20 05:58:36;;;;;;;6.72;5.10;;;;;;;;;;3519928;39;105384;-62
2021/07/20 06:01:04;;;;;;;8.65;5.78;;;;;;;;;;3519651;40;106914;-60
2021/07/20 06:03:33;;;;;;;8.43;6.40;;;;;;;;;;3519225;40;107497;-59
2021/07/20 06:06:02;;;;;;;8.90;6.20;;;;;;;;;;3519123;40;105386;-61
2021/07/20 06:08:30;;;;;;;8.68;6.10;;;;;;;;;;3519875;40;105618;-58
2021/07/20 06:10:59;;;;;;;8.52;6.05;;;;;;;;;;3519395;40;107003;-64
2021/07/20 06:13:33;;;;;;;8.23;5.57;;;;;;;;;;3519385;39;106508;-64
2021/07/20 06:16:05;;;;;;;9.57;6.70;;;;;;;;;;3519531;40;105161;-61
2021/07/20 06:18:35;;;;;;;7.43;6.30;;;;;;;;;;3519501;40;105278;-61
2021/07/20 06:21:04;;;;;;;8.03;5.67;;;;;;;;;;3519348;40;106885;-61
2021/07/20 06:23:53;;;;;;;7.70;6.40;;;;;;;;;;3519292;40;107460;-64
2021/07/20 06:26:22;;;;;;;10.05;6.28;;;;;;;;;;3519495;40;105129;-64
2021/07/20 06:28:53;;;;;;;9.48;6.05;;;;;;;;;;3519540;39;105231;-62
2021/07/20 06:31:21;;;;;;;9.82;6.35;;;;;;;;;;3519340;40;106875;-64
2021/07/20 06:33:48;;;;;;;10.63;6.55;;;;;;;;;;3519455;40;107571;-65
2021/07/20 06:36:17;;;;;;;8.98;6.35;;;;;;;;;;3519051;40;105401;-60
2021/07/20 06:38:45;;;;;;;10.43;6.32;;;;;;;;;;3519556;40;105391;-62
2021/07/20 06:41:16;;;;;;;9.68;5.90;;;;;;;;;;3519222;40;107477;-64
2021/07/20 06:43:43;;;;;;;9.55;6.63;;;;;;;;;;3518990;40;107593;-63
2021/07/20 06:46:17;;;;;;;9.10;6.43;;;;;;;;;;3519262;40;105478;-63
2021/07/20 06:48:46;;;;;;;9.45;6.60;;;;;;;;;;3510112;40;105202;-64
2021/07/20 06:51:13;;;;;;;8.63;6.63;;;;;;;;;;3518418;40;107005;-62
2021/07/20 06:53:40;;;;;;;7.82;6.10;;;;;;;;;;3519051;40;107489;-62
2021/07/20 06:56:10;;;;;;;8.50;6.18;;;;;;;;;;3519311;40;105647;-60
2021/07/20 06:58:40;;;;;;;10.88;6.75;;;;;;;;;;3519191;40;105632;-60
2021/07/20 07:01:10;;;;;;;9.02;6.30;;;;;;;;;;3518374;40;106620;-59
2021/07/20 07:04:03;;;;;;;8.32;6.03;;;;;;;;;;3517995;40;108882;-62
2021/07/20 07:06:34;;;;;;;9.00;6.60;;;;;;;;;;3516354;39;105955;-60
2021/07/20 07:09:01;;;;;;;10.68;7.35;;;;;;;;;;3518546;40;105295;-61
2021/07/20 07:11:29;;;;;;;8.15;6.35;;;;;;;;;;3518231;40;106960;-60
2021/07/20 07:13:57;;;;;;;8.65;6.80;;;;;;;;;;3518432;40;107516;-63
2021/07/20 07:16:25;;;;;;;8.32;6.13;;;;;;;;;;3519877;40;105626;-60
2021/07/20 07:18:52;;;;;;;9.13;6.35;;;;;;;;;;3520271;39;105346;-62
2021/07/20 07:21:20;;;;;;;10.13;7.10;;;;;;;;;;3519702;40;106908;-63
2021/07/20 07:23:50;;;;;;;11.75;7.05;;;;;;;;;;3520300;40;107546;-59
2021/07/20 07:26:18;;;;;;;8.18;6.40;;;;;;;;;;3520289;40;105380;-61
2021/07/20 07:28:48;;;;;;;9.20;6.38;;;;;;;;;;3520474;39;105362;-64
2021/07/20 07:31:16;;;;;;;9.52;7.00;;;;;;;;;;3520145;39;106740;-60
2021/07/20 07:33:43;;;;;;;11.13;7.30;;;;;;;;;;3519892;40;107904;-59
2021/07/20 07:36:11;;;;;;;10.02;6.95;;;;;;;;;;3520350;39;105180;-62
2021/07/20 07:38:45;;;;;;;10.20;7.18;;;;;;;;;;3519765;39;105321;-63
2021/07/20 07:41:14;;;;;;;12.38;7.07;;;;;;;;;;3520068;40;106890;-63
2021/07/20 07:43:42;;;;;;;10.50;7.47;;;;;;;;;;3520211;39;107467;-62
2021/07/20 07:46:09;;;;;;;10.90;7.13;;;;;;;;;;3520284;39;105336;-61
2021/07/20 07:48:39;;;;;;;11.88;7.50;;;;;;;;;;3520288;40;105398;-64
2021/07/20 07:51:07;;;;;;;12.30;7.45;;;;;;;;;;3519883;40;106931;-61
2021/07/20 07:53:36;;;;;;;11.45;7.43;;;;;;;;;;3520308;40;107461;-62
2021/07/20 07:56:05;;;;;;;13.20;8.32;;;;;;;;;;3520216;40;105640;-65
2021/07/20 07:58:33;;;;;;;13.38;8.25;;;;;;;;;;3520500;39;105375;-62
2021/07/20 08:01:02;;;;;;;12.07;7.82;;;;;;;;;;3520111;40;106926;-61
2021/07/20 08:03:31;;;;;;;11.32;7.63;;;;;;;;;;3519511;40;107514;-61
2021/07/20 08:06:00;;;;;;;11.65;7.63;;;;;;;;;;3519222;39;105417;-61
2021/07/20 08:08:28;;;;;;;13.05;6.90;;;;;;;;;;3519646;39;105310;-59
2021/07/20 08:10:56;;;;;;;13.02;8.52;;;;;;;;;;3519500;40;107322;-59
2021/07/20 08:13:24;;;;;;;15.55;8.82;;;;;;;;;;3519810;39;107555;-63
2021/07/20 08:15:53;;;;;;;16.67;10.35;;;;;;;;;;3519278;40;105307;-62
2021/07/20 08:18:22;;;;;;;15.63;9.00;;;;;;;;;;3519736;39;106029;-62
2021/07/20 08:21:01;;;;;;;15.00;9.68;;;;;;;;;;3519422;39;107494;-61
2021/07/20 08:23:29;;;;;;;16.90;10.75;;;;;;;;;;3519559;39;107561;-60
2021/07/20 08:25:59;;;;;;;18.38;11.30;;;;;;;;;;3519720;39;105302;-64
2021/07/20 08:28:32;;;;;;;23.90;13.02;;;;;;;;;;3519877;40;105293;-61
2021/07/20 08:31:02;;;;;;;17.63;10.30;;;;;;;;;;3519483;40;107405;-62
2021/07/20 08:33:48;;;;;;;18.90;11.52;;;;;;;;;;3519781;40;108001;-63
2021/07/20 08:36:17;;;;;;;20.35;12.02;;;;;;;;;;3519624;40;106374;-62
2021/07/20 08:38:47;;;;;;;23.02;11.85;;;;;;;;;;3519612;39;105221;-64
2021/07/20 08:41:39;;;;;;;16.77;10.70;;;;;;;;;;3518856;39;107067;-62
2021/07/20 08:44:36;;;;;;;17.75;11.27;;;;;;;;;;3518325;40;107295;-63
2021/07/20 08:47:26;;;;;;;18.48;10.48;;;;;;;;;;3518182;40;105308;-59
2021/07/20 08:50:07;;;;;;;20.55;11.57;;;;;;;;;;3518667;40;105346;-64
2021/07/20 08:53:09;;;;;;;20.10;11.15;;;;;;;;;;3517534;40;106821;-62
2021/07/20 08:55:43;;;;;;;21.50;10.75;;;;;;;;;;3516458;40;107475;-62
2021/07/20 08:58:15;;;;;;;19.58;11.25;;;;;;;;;;3516970;40;105499;-62
2021/07/20 09:00:46;;;;;;;16.55;10.88;;;;;;;;;;3518839;40;105542;-61
2021/07/20 09:03:39;;;;;;;17.55;11.07;;;;;;;;;;3517381;40;106991;-61
2021/07/20 09:06:12;;;;;;;16.63;10.75;;;;;;;;;;3517790;40;107480;-61
2021/07/20 09:08:44;;;;;;;19.33;11.70;;;;;;;;;;3515303;40;106643;-63
2021/07/20 09:11:38;;;;;;;20.75;12.02;;;;;;;;;;3515839;40;105492;-63
2021/07/20 09:14:32;;;;;;;18.13;11.25;;;;;;;;;;3517908;39;106929;-63
2021/07/20 09:17:32;;;;;;;24.13;11.45;;;;;;;;;;3518214;40;107485;-61
2021/07/20 09:20:10;;;;;;;17.30;11.18;;;;;;;;;;3520751;39;105380;-63
2021/07/20 09:22:45;;;;;;;20.10;11.25;;;;;;;;;;3518586;40;106973;-61
2021/07/20 09:25:17;;;;;;;21.77;11.27;;;;;;;;;;3517930;40;107169;-61
2021/07/20 09:27:48;;;;;;;17.75;10.95;;;;;;;;;;3517406;40;108108;-59
2021/07/20 09:30:19;;;;;;;19.08;10.88;;;;;;;;;;3519048;39;105744;-69
2021/07/20 09:33:17;;;;;;;22.38;12.02;;;;;;;;;;3515913;40;105458;-70
2021/07/20 09:35:51;;;;;;;27.75;13.02;;;;;;;;;;3517872;40;106905;-60
2021/07/20 09:38:55;;;;;;;31.27;15.95;;;;;;;;;;3516388;39;107407;-60
2021/07/20 09:41:51;;;;;;;33.83;15.80;;;;;;;;;;3506362;39;105874;-62
2021/07/20 09:44:36;;;;;;;30.48;15.80;;;;;;;;;;3518695;39;105499;-62
2021/07/20 09:47:17;;;;;;;37.88;18.02;;;;;;;;;;3516648;40;106955;-64
2021/07/20 09:50:05;;;;;;;34.72;16.67;;;;;;;;;;3518267;40;108000;-63
2021/07/20 09:52:41;;;;;;;33.30;16.30;;;;;;;;;;3518093;40;105498;-60
2021/07/20 09:55:27;;;;;;;33.40;15.75;;;;;;;;;;3519042;40;105584;-64
2021/07/20 09:58:25;;;;;;;31.77;15.75;;;;;;;;;;3518862;40;106696;-60
2021/07/20 10:01:14;;;;;;;32.75;15.55;;;;;;;;;;3518446;40;107701;-62
2021/07/20 10:04:19;;;;;;;32.90;15.90;;;;;;;;;;3516456;40;105405;-63
2021/07/20 10:06:52;;;;;;;33.40;16.38;;;;;;;;;;3528872;39;105448;-60
2021/07/20 10:09:47;;;;;;;32.53;15.68;;;;;;;;;;3518705;39;107247;-62
2021/07/20 10:12:44;;;;;;;38.63;17.15;;;;;;;;;;3518446;40;107445;-62
2021/07/20 10:15:15;;;;;;;37.63;18.67;;;;;;;;;;3517966;40;105581;-62
2021/07/20 10:17:57;;;;;;;40.15;18.08;;;;;;;;;;3518918;40;105241;-61
2021/07/20 10:20:41;;;;;;;40.58;19.77;;;;;;;;;;3517247;40;106854;-59
2021/07/20 10:23:29;;;;;;;45.70;20.80;;;;;;;;;;3517768;40;106834;-60
2021/07/20 10:26:21;;;;;;;47.70;21.45;;;;;;;;;;3518198;40;105319;-62
2021/07/20 10:29:05;;;;;;;46.30;21.42;;;;;;;;;;3519062;40;105249;-62
2021/07/20 10:31:46;;;;;;;48.10;21.92;;;;;;;;;;3518018;40;106803;-61
2021/07/20 10:34:20;;;;;;;51.25;22.27;;;;;;;;;;3525279;39;106325;-62
2021/07/20 10:37:04;;;;;;;56.40;23.38;;;;;;;;;;3518607;40;105301;-66
2021/07/20 10:39:41;;;;;;;48.70;21.63;;;;;;;;;;3516897;40;105343;-64
2021/07/20 10:42:39;;;;;;;49.55;21.67;;;;;;;;;;3515907;40;107499;-62
2021/07/20 10:45:10;;;;;;;50.15;22.15;;;;;;;;;;3518543;40;107630;-63
2021/07/20 10:48:01;;;;;;;49.05;21.98;;;;;;;;;;3518666;40;105389;-60
2021/07/20 10:50:34;;;;;;;46.88;22.33;;;;;;;;;;3519793;40;105248;-61
2021/07/20 10:53:02;;;;;;;46.80;22.95;;;;;;;;;;3519788;40;106938;-62
2021/07/20 10:56:02;;;;;;;46.17;21.52;;;;;;;;;;3519754;40;107473;-58
2021/07/20 10:59:12;;;;;;;35.70;17.97;;;;;;;;;;3520072;39;105353;-60
2021/07/20 11:01:55;;;;;;;32.35;15.93;;;;;;;;;;3500100;40;105682;-63
2021/07/20 11:04:43;;;;;;;31.83;16.85;;;;;;;;;;3508002;40;106954;-66
2021/07/20 11:07:14;;;;;;;30.42;16.52;;;;;;;;;;3515698;40;108107;-62
2021/07/20 11:09:41;;;;;;;;;;;;;;;;;;3520417;39;105308;-63
2021/07/20 11:12:09;;;;;;;25.25;14.50;;;;;;;;;;3518653;39;128132;-62
2021/07/20 11:14:48;;;;;;;24.23;14.48;;;;;;;;;;3519388;40;106815;-63
2021/07/20 11:17:20;;;;;;;27.13;14.48;;;;;;;;;;3518123;40;107579;-64
2021/07/20 11:19:51;;;;;;;29.77;15.07;;;;;;;;;;3519133;40;105697;-68
2021/07/20 11:22:22;;;;;;;27.10;14.80;;;;;;;;;;3519350;40;105432;-62
2021/07/20 11:24:51;;;;;;;24.67;14.13;;;;;;;;;;3517726;40;106843;-61
2021/07/20 11:27:20;;;;;;;25.90;13.70;;;;;;;;;;3518926;40;107585;-61
2021/07/20 11:29:49;;;;;;;23.30;13.80;;;;;;;;;;3519162;39;105545;-65
2021/07/20 11:32:23;;;;;;;24.23;13.45;;;;;;;;;;3519306;40;105736;-65
2021/07/20 11:35:04;;;;;;;26.55;13.88;;;;;;;;;;3519191;39;106120;-65
2021/07/20 11:37:37;;;;;;;21.70;13.80;;;;;;;;;;3517311;40;107079;-67
2021/07/20 11:40:08;;;;;;;26.20;14.10;;;;;;;;;;3519136;40;105637;-60
2021/07/20 11:42:44;;;;;;;22.95;13.57;;;;;;;;;;3519586;40;105571;-67
2021/07/20 11:45:13;;;;;;;24.00;13.45;;;;;;;;;;3518932;39;106832;-64
2021/07/20 11:47:49;;;;;;;25.02;14.52;;;;;;;;;;3515056;40;107403;-65
2021/07/20 11:50:35;;;;;;;22.48;13.23;;;;;;;;;;3510526;40;105343;-64
2021/07/20 11:53:13;;;;;;;22.33;14.00;;;;;;;;;;3510315;40;105367;-61
2021/07/20 11:55:46;;;;;;;23.70;13.70;;;;;;;;;;3510453;40;106829;-66
2021/07/20 11:58:25;;;;;;;66.00;38.42;;;;;;;;;;3510352;40;107227;-60
2021/07/20 12:01:26;;;;;;;100.95;62.90;;;;;;;;;;3510125;40;105184;-65
2021/07/20 12:04:00;;;;;;;251.68;154.35;;;;;;;;;;3510474;40;105714;-61
2021/07/20 12:07:01;;;;;;;160.90;98.40;;;;;;;;;;3509893;40;107206;-60
2021/07/20 12:09:41;;;;;;;166.88;109.40;;;;;;;;;;3510356;40;107404;-63
2021/07/20 12:12:44;;;;;;;237.88;156.70;;;;;;;;;;3510487;40;105444;-65
2021/07/20 12:15:13;;;;;;;213.60;134.93;;;;;;;;;;3500410;40;105767;-65
2021/07/20 12:17:40;;;;;;;182.45;120.15;;;;;;;;;;3500367;40;106733;-60
2021/07/20 12:20:12;;;;;;;198.02;129.93;;;;;;;;;;3500254;40;107884;-61
2021/07/20 12:22:41;;;;;;;159.82;104.43;;;;;;;;;;3500529;40;105152;-63
2021/07/20 12:25:09;;;;;;;141.95;91.80;;;;;;;;;;3500505;40;105566;-64
2021/07/20 12:27:38;;;;;;;144.98;91.70;;;;;;;;;;3500281;40;106903;-61
2021/07/20 12:30:08;;;;;;;125.20;80.53;;;;;;;;;;3500220;40;108014;-66
2021/07/20 12:32:37;;;;;;;104.05;67.95;;;;;;;;;;3500370;40;105660;-60
2021/07/20 12:35:06;;;;;;;100.78;64.68;;;;;;;;;;3502098;40;105442;-63
2021/07/20 12:37:33;;;;;;;88.88;56.03;;;;;;;;;;3508800;40;106968;-63
2021/07/20 12:40:00;;;;;;;80.07;51.58;;;;;;;;;;3510061;40;108475;-66
2021/07/20 12:42:39;;;;;;;68.25;43.10;;;;;;;;;;3509705;40;105374;-63
2021/07/20 12:45:12;;;;;;;71.07;45.70;;;;;;;;;;3510107;40;105174;-62
2021/07/20 12:47:39;;;;;;;65.10;41.42;;;;;;;;;;3510063;40;106910;-62
2021/07/20 12:50:09;;;;;;;56.03;37.55;;;;;;;;;;3510197;40;107467;-61
2021/07/20 12:52:41;;;;;;;53.58;33.83;;;;;;;;;;3509076;40;105567;-61
2021/07/20 12:55:14;;;;;;;78.70;49.63;;;;;;;;;;3509549;40;105406;-65
2021/07/20 12:57:55;;;;;;;97.78;62.70;;;;;;;;;;3509794;40;106853;-62
2021/07/20 13:00:37;;;;;;;74.45;49.25;;;;;;;;;;3509764;40;107622;-63
2021/07/20 13:03:08;;;;;;;64.97;43.22;;;;;;;;;;3509712;40;105919;-66
2021/07/20 13:05:40;;;;;;;61.60;41.47;;;;;;;;;;3509365;40;107339;-62
2021/07/20 13:08:08;;;;;;;59.53;39.40;;;;;;;;;;3509270;40;106828;-62
2021/07/20 13:10:36;;;;;;;55.55;36.20;;;;;;;;;;3509499;40;107587;-67
2021/07/20 13:13:05;;;;;;;50.90;32.53;;;;;;;;;;3509423;40;105211;-64
2021/07/20 13:15:32;;;;;;;50.50;33.65;;;;;;;;;;3510321;40;105374;-63
2021/07/20 13:18:01;;;;;;;48.80;33.05;;;;;;;;;;3509839;40;106994;-66
2021/07/20 13:20:33;;;;;;;45.95;31.15;;;;;;;;;;3509876;40;107453;-63
2021/07/20 13:23:01;;;;;;;55.58;35.55;;;;;;;;;;3509220;40;105618;-60
2021/07/20 13:25:28;;;;;;;42.10;29.27;;;;;;;;;;3509627;40;105354;-62
2021/07/20 13:27:56;;;;;;;44.97;31.02;;;;;;;;;;3509403;40;107536;-66
2021/07/20 13:30:32;;;;;;;34.28;24.65;;;;;;;;;;3508001;40;107530;-66
2021/07/20 13:33:00;;;;;;;33.70;22.40;;;;;;;;;;3509813;40;105482;-68
2021/07/20 13:35:28;;;;;;;36.22;24.02;;;;;;;;;;3510061;40;105447;-63
2021/07/20 13:37:55;;;;;;;39.38;26.80;;;;;;;;;;3508572;40;106918;-62
2021/07/20 13:40:26;;;;;;;34.15;20.65;;;;;;;;;;3508966;40;108300;-64
2021/07/20 13:42:56;;;;;;;29.48;20.30;;;;;;;;;;3509910;40;105388;-63
2021/07/20 13:45:23;;;;;;;29.75;21.05;;;;;;;;;;3506991;40;105376;-65
2021/07/20 13:47:54;;;;;;;27.02;20.13;;;;;;;;;;3509562;40;106958;-63
2021/07/20 13:50:28;;;;;;;26.23;18.52;;;;;;;;;;3509827;40;107501;-69
2021/07/20 13:52:58;;;;;;;29.00;20.02;;;;;;;;;;3509027;40;105387;-65
2021/07/20 13:55:28;;;;;;;23.60;17.17;;;;;;;;;;3509021;40;105389;-66
2021/07/20 13:57:57;;;;;;;33.13;21.52;;;;;;;;;;3509877;40;106914;-66
2021/07/20 14:00:26;;;;;;;32.00;21.55;;;;;;;;;;3509785;40;107491;-66
2021/07/20 14:02:56;;;;;;;27.77;18.33;;;;;;;;;;3509433;40;105469;-66
2021/07/20 14:05:27;;;;;;;;;;;;;;;;;;3510313;40;105541;-67
2021/07/20 14:07:54;;;;;;;22.73;15.43;;;;;;;;;;3508704;40;136646;-63
2021/07/20 14:10:22;;;;;;;25.00;15.23;;;;;;;;;;3509756;40;107446;-63
2021/07/20 14:12:51;;;;;;;21.45;15.43;;;;;;;;;;3509447;40;105505;-66
2021/07/20 14:15:19;;;;;;;21.75;14.40;;;;;;;;;;3508919;40;105252;-60
2021/07/20 14:17:47;;;;;;;25.25;15.88;;;;;;;;;;3509219;40;106953;-62
2021/07/20 14:20:17;;;;;;;23.52;16.25;;;;;;;;;;3509070;40;107677;-62
2021/07/20 14:22:44;;;;;;;24.13;16.05;;;;;;;;;;3508447;40;107711;-60
2021/07/20 14:25:11;;;;;;;21.40;15.80;;;;;;;;;;3509457;40;105589;-63
2021/07/20 14:27:39;;;;;;;23.23;15.90;;;;;;;;;;3508028;40;107282;-65
2021/07/20 14:30:14;;;;;;;21.50;15.30;;;;;;;;;;3509348;40;107582;-65
2021/07/20 14:32:45;;;;;;;22.97;15.00;;;;;;;;;;3509036;40;105481;-63
2021/07/20 14:35:12;;;;;;;21.02;14.23;;;;;;;;;;3509910;40;105863;-64
2021/07/20 14:37:53;;;;;;;26.52;16.00;;;;;;;;;;3508471;40;107016;-66
2021/07/20 14:40:29;;;;;;;20.88;14.45;;;;;;;;;;3510035;40;108083;-64
2021/07/20 14:43:07;;;;;;;20.52;12.73;;;;;;;;;;3509997;40;107500;-62
2021/07/20 14:45:35;;;;;;;20.02;13.55;;;;;;;;;;3510567;40;105548;-62
2021/07/20 14:48:10;;;;;;;20.65;12.63;;;;;;;;;;3509880;40;106935;-58
2021/07/20 14:50:58;;;;;;;42.03;29.05;;;;;;;;;;3508937;40;107580;-60